sensor_id;sensor_type;location;lat;lon;timestamp;temperature;humidity
28767;DHT22;15921;52.034;20.650;2022-09-09T00:02:19;13.00;99.90
28767;DHT22;15921;52.034;20.650;2022-09-09T00:07:46;12.90;99.90
28767;DHT22;15921;52.034;20.650;2022-09-09T00:16:17;12.90;99.90
28767;DHT22;15921;52.034;20.650;2022-09-09T00:21:37;12.90;99.90
28767;DHT22;15921;52.034;20.650;2022-09-09T00:24:34;13.00;99.90
28767;DHT22;15921;52.034;20.650;2022-09-09T00:27:11;12.90;99.90
28767;DHT22;15921;52.034;20.650;2022-09-09T00:29:51;12.90;99.90
28767;DHT22;15921;52.034;20.650;2022-09-09T00:32:20;12.90;99.90
28767;DHT22;15921;52.034;20.650;2022-09-09T00:35:00;12.90;99.90
28767;DHT22;15921;52.034;20.650;2022-09-09T00:37:28;12.90;99.90
28767;DHT22;15921;52.034;20.650;2022-09-09T00:39:59;12.90;99.90
28767;DHT22;15921;52.034;20.650;2022-09-09T00:45:23;12.90;99.90
28767;DHT22;15921;52.034;20.650;2022-09-09T00:47:54;13.00;99.90
28767;DHT22;15921;52.034;20.650;2022-09-09T00:50:50;12.90;99.90
28767;DHT22;15921;52.034;20.650;2022-09-09T00:56:20;13.00;99.90
28767;DHT22;15921;52.034;20.650;2022-09-09T01:01:25;13.00;99.90
28767;DHT22;15921;52.034;20.650;2022-09-09T01:03:55;13.00;99.90
28767;DHT22;15921;52.034;20.650;2022-09-09T01:06:32;13.00;99.90
28767;DHT22;15921;52.034;20.650;2022-09-09T01:09:38;13.00;99.90
28767;DHT22;15921;52.034;20.650;2022-09-09T01:12:17;13.00;99.90
28767;DHT22;15921;52.034;20.650;2022-09-09T01:14:48;13.00;99.90
28767;DHT22;15921;52.034;20.650;2022-09-09T01:17:24;13.00;99.90
28767;DHT22;15921;52.034;20.650;2022-09-09T01:20:12;13.00;99.90
28767;DHT22;15921;52.034;20.650;2022-09-09T01:27:47;13.00;99.90
28767;DHT22;15921;52.034;20.650;2022-09-09T01:30:16;13.10;99.90
28767;DHT22;15921;52.034;20.650;2022-09-09T01:32:48;13.10;99.90
28767;DHT22;15921;52.034;20.650;2022-09-09T01:35:40;13.00;99.90
28767;DHT22;15921;52.034;20.650;2022-09-09T01:38:08;13.10;99.90
28767;DHT22;15921;52.034;20.650;2022-09-09T01:40:34;13.10;99.90
28767;DHT22;15921;52.034;20.650;2022-09-09T01:43:00;13.10;99.90
28767;DHT22;15921;52.034;20.650;2022-09-09T01:45:26;13.10;99.90
28767;DHT22;15921;52.034;20.650;2022-09-09T01:47:52;13.10;99.90
28767;DHT22;15921;52.034;20.650;2022-09-09T01:50:19;13.10;99.90
28767;DHT22;15921;52.034;20.650;2022-09-09T01:52:49;13.10;99.90
28767;DHT22;15921;52.034;20.650;2022-09-09T01:55:15;13.10;99.90
28767;DHT22;15921;52.034;20.650;2022-09-09T01:58:52;13.10;99.90
28767;DHT22;15921;52.034;20.650;2022-09-09T02:00:56;13.10;99.90
28767;DHT22;15921;52.034;20.650;2022-09-09T02:03:28;13.10;99.90
28767;DHT22;15921;52.034;20.650;2022-09-09T02:08:53;13.20;99.90
28767;DHT22;15921;52.034;20.650;2022-09-09T02:11:21;13.20;99.90
28767;DHT22;15921;52.034;20.650;2022-09-09T02:13:51;13.10;99.90
28767;DHT22;15921;52.034;20.650;2022-09-09T02:16:27;13.10;99.90
28767;DHT22;15921;52.034;20.650;2022-09-09T02:18:57;13.20;99.90
28767;DHT22;15921;52.034;20.650;2022-09-09T02:21:28;13.20;99.90
28767;DHT22;15921;52.034;20.650;2022-09-09T02:23:55;13.20;99.90
28767;DHT22;15921;52.034;20.650;2022-09-09T02:26:22;13.20;99.90
28767;DHT22;15921;52.034;20.650;2022-09-09T02:28:50;13.20;99.90
28767;DHT22;15921;52.034;20.650;2022-09-09T02:31:18;13.20;99.90
28767;DHT22;15921;52.034;20.650;2022-09-09T02:33:51;13.10;99.90
28767;DHT22;15921;52.034;20.650;2022-09-09T02:36:18;13.10;99.90
28767;DHT22;15921;52.034;20.650;2022-09-09T02:38:46;13.10;99.90
28767;DHT22;15921;52.034;20.650;2022-09-09T02:41:24;13.10;99.90
28767;DHT22;15921;52.034;20.650;2022-09-09T02:43:51;13.10;99.90
28767;DHT22;15921;52.034;20.650;2022-09-09T02:52:14;13.10;99.90
28767;DHT22;15921;52.034;20.650;2022-09-09T02:54:43;13.10;99.90
28767;DHT22;15921;52.034;20.650;2022-09-09T02:59:36;13.10;99.90
28767;DHT22;15921;52.034;20.650;2022-09-09T03:02:02;13.20;99.90
28767;DHT22;15921;52.034;20.650;2022-09-09T03:04:28;13.20;99.90
28767;DHT22;15921;52.034;20.650;2022-09-09T03:06:55;13.20;99.90
28767;DHT22;15921;52.034;20.650;2022-09-09T03:09:21;13.20;99.90
28767;DHT22;15921;52.034;20.650;2022-09-09T03:11:47;13.20;99.90
28767;DHT22;15921;52.034;20.650;2022-09-09T03:14:13;13.20;99.90
28767;DHT22;15921;52.034;20.650;2022-09-09T03:16:38;13.20;99.90
28767;DHT22;15921;52.034;20.650;2022-09-09T03:23:04;13.10;99.90
28767;DHT22;15921;52.034;20.650;2022-09-09T03:25:30;13.10;99.90
28767;DHT22;15921;52.034;20.650;2022-09-09T03:27:57;13.10;99.90
28767;DHT22;15921;52.034;20.650;2022-09-09T03:30:25;13.10;99.90
28767;DHT22;15921;52.034;20.650;2022-09-09T03:32:51;13.10;99.90
28767;DHT22;15921;52.034;20.650;2022-09-09T03:35:17;13.20;99.90
28767;DHT22;15921;52.034;20.650;2022-09-09T03:37:44;13.20;99.90
28767;DHT22;15921;52.034;20.650;2022-09-09T03:40:11;13.30;99.90
28767;DHT22;15921;52.034;20.650;2022-09-09T03:42:38;13.30;99.90
28767;DHT22;15921;52.034;20.650;2022-09-09T03:45:06;13.30;99.90
28767;DHT22;15921;52.034;20.650;2022-09-09T03:47:33;13.30;99.90
28767;DHT22;15921;52.034;20.650;2022-09-09T03:49:59;13.30;99.90
28767;DHT22;15921;52.034;20.650;2022-09-09T03:52:24;13.30;99.90
28767;DHT22;15921;52.034;20.650;2022-09-09T03:54:52;13.40;99.90
28767;DHT22;15921;52.034;20.650;2022-09-09T03:57:19;13.40;99.90
28767;DHT22;15921;52.034;20.650;2022-09-09T03:59:44;13.40;99.90
28767;DHT22;15921;52.034;20.650;2022-09-09T04:02:23;13.40;99.90
28767;DHT22;15921;52.034;20.650;2022-09-09T04:04:49;13.40;99.90
28767;DHT22;15921;52.034;20.650;2022-09-09T04:07:15;13.40;99.90
28767;DHT22;15921;52.034;20.650;2022-09-09T04:09:41;13.50;99.90
28767;DHT22;15921;52.034;20.650;2022-09-09T04:12:07;13.50;99.90
28767;DHT22;15921;52.034;20.650;2022-09-09T04:14:32;13.50;99.90
28767;DHT22;15921;52.034;20.650;2022-09-09T04:16:58;13.40;99.90
28767;DHT22;15921;52.034;20.650;2022-09-09T04:19:25;13.40;99.90
28767;DHT22;15921;52.034;20.650;2022-09-09T04:21:51;13.40;99.90
28767;DHT22;15921;52.034;20.650;2022-09-09T04:24:17;13.40;99.90
28767;DHT22;15921;52.034;20.650;2022-09-09T05:11:54;12.20;99.90
28767;DHT22;15921;52.034;20.650;2022-09-09T05:14:20;12.10;99.90
28767;DHT22;15921;52.034;20.650;2022-09-09T05:16:46;12.20;99.90
28767;DHT22;15921;52.034;20.650;2022-09-09T05:19:12;12.30;99.90
28767;DHT22;15921;52.034;20.650;2022-09-09T05:21:38;12.50;99.90
28767;DHT22;15921;52.034;20.650;2022-09-09T05:24:17;12.60;99.90
28767;DHT22;15921;52.034;20.650;2022-09-09T05:26:51;12.70;99.90
28767;DHT22;15921;52.034;20.650;2022-09-09T05:29:17;12.80;99.90
28767;DHT22;15921;52.034;20.650;2022-09-09T05:31:45;12.90;99.90
28767;DHT22;15921;52.034;20.650;2022-09-09T05:34:12;13.10;99.90
28767;DHT22;15921;52.034;20.650;2022-09-09T05:36:39;13.20;99.90
28767;DHT22;15921;52.034;20.650;2022-09-09T05:39:05;13.30;99.90
28767;DHT22;15921;52.034;20.650;2022-09-09T05:41:31;13.40;99.90
28767;DHT22;15921;52.034;20.650;2022-09-09T05:43:57;13.40;99.90
28767;DHT22;15921;52.034;20.650;2022-09-09T05:46:24;13.50;99.90
28767;DHT22;15921;52.034;20.650;2022-09-09T05:48:52;13.60;99.90
28767;DHT22;15921;52.034;20.650;2022-09-09T05:51:21;13.70;99.90
28767;DHT22;15921;52.034;20.650;2022-09-09T05:53:48;13.80;99.90
28767;DHT22;15921;52.034;20.650;2022-09-09T05:56:17;13.80;99.90
28767;DHT22;15921;52.034;20.650;2022-09-09T05:58:44;13.90;99.90
28767;DHT22;15921;52.034;20.650;2022-09-09T06:01:13;13.90;99.90
28767;DHT22;15921;52.034;20.650;2022-09-09T06:03:41;13.90;99.90
28767;DHT22;15921;52.034;20.650;2022-09-09T06:06:10;14.00;99.90
28767;DHT22;15921;52.034;20.650;2022-09-09T06:08:37;14.10;99.90
28767;DHT22;15921;52.034;20.650;2022-09-09T06:11:05;14.10;99.90
28767;DHT22;15921;52.034;20.650;2022-09-09T06:13:31;14.20;99.90
28767;DHT22;15921;52.034;20.650;2022-09-09T06:15:58;14.20;99.90
28767;DHT22;15921;52.034;20.650;2022-09-09T06:31:22;14.20;99.90
28767;DHT22;15921;52.034;20.650;2022-09-09T06:33:49;15.70;99.90
28767;DHT22;15921;52.034;20.650;2022-09-09T06:36:26;15.40;99.90
28767;DHT22;15921;52.034;20.650;2022-09-09T06:38:53;15.20;99.90
28767;DHT22;15921;52.034;20.650;2022-09-09T06:41:20;15.20;99.90
28767;DHT22;15921;52.034;20.650;2022-09-09T06:43:47;15.10;99.90
28767;DHT22;15921;52.034;20.650;2022-09-09T06:46:16;15.10;99.90
28767;DHT22;15921;52.034;20.650;2022-09-09T06:48:43;15.10;99.90
28767;DHT22;15921;52.034;20.650;2022-09-09T06:51:30;15.20;99.90
28767;DHT22;15921;52.034;20.650;2022-09-09T06:53:57;15.20;99.90
28767;DHT22;15921;52.034;20.650;2022-09-09T06:58:53;15.40;99.90
28767;DHT22;15921;52.034;20.650;2022-09-09T07:01:25;15.60;99.90
28767;DHT22;15921;52.034;20.650;2022-09-09T07:03:54;15.70;99.90
28767;DHT22;15921;52.034;20.650;2022-09-09T07:06:25;15.90;99.90
28767;DHT22;15921;52.034;20.650;2022-09-09T07:08:56;16.10;99.90
28767;DHT22;15921;52.034;20.650;2022-09-09T07:11:28;16.10;99.90
28767;DHT22;15921;52.034;20.650;2022-09-09T07:13:56;16.10;99.90
28767;DHT22;15921;52.034;20.650;2022-09-09T07:16:22;16.10;99.90
28767;DHT22;15921;52.034;20.650;2022-09-09T07:18:53;16.10;99.90
28767;DHT22;15921;52.034;20.650;2022-09-09T07:21:23;16.10;99.90
28767;DHT22;15921;52.034;20.650;2022-09-09T07:23:52;16.10;99.90
28767;DHT22;15921;52.034;20.650;2022-09-09T07:26:20;16.00;99.90
28767;DHT22;15921;52.034;20.650;2022-09-09T07:28:47;16.00;99.90
28767;DHT22;15921;52.034;20.650;2022-09-09T07:31:47;16.00;99.90
28767;DHT22;15921;52.034;20.650;2022-09-09T07:34:06;16.10;99.90
28767;DHT22;15921;52.034;20.650;2022-09-09T07:36:33;16.20;99.90
28767;DHT22;15921;52.034;20.650;2022-09-09T07:39:06;16.10;99.90
28767;DHT22;15921;52.034;20.650;2022-09-09T07:41:33;16.10;99.90
28767;DHT22;15921;52.034;20.650;2022-09-09T07:44:04;16.20;99.90
28767;DHT22;15921;52.034;20.650;2022-09-09T07:46:32;16.10;99.90
28767;DHT22;15921;52.034;20.650;2022-09-09T07:48:57;16.30;99.90
28767;DHT22;15921;52.034;20.650;2022-09-09T07:51:29;16.40;99.90
28767;DHT22;15921;52.034;20.650;2022-09-09T07:53:58;16.40;99.90
28767;DHT22;15921;52.034;20.650;2022-09-09T07:56:24;16.40;99.90
28767;DHT22;15921;52.034;20.650;2022-09-09T07:58:52;16.30;99.90
28767;DHT22;15921;52.034;20.650;2022-09-09T08:01:23;16.30;99.90
28767;DHT22;15921;52.034;20.650;2022-09-09T08:04:04;16.40;99.90
28767;DHT22;15921;52.034;20.650;2022-09-09T08:06:39;16.50;99.90
28767;DHT22;15921;52.034;20.650;2022-09-09T08:09:06;16.50;99.90
28767;DHT22;15921;52.034;20.650;2022-09-09T08:11:32;16.50;99.90
28767;DHT22;15921;52.034;20.650;2022-09-09T08:13:59;16.60;99.90
28767;DHT22;15921;52.034;20.650;2022-09-09T08:16:27;16.70;99.90
28767;DHT22;15921;52.034;20.650;2022-09-09T08:18:53;16.80;99.90
28767;DHT22;15921;52.034;20.650;2022-09-09T08:21:23;16.90;99.90
28767;DHT22;15921;52.034;20.650;2022-09-09T08:23:51;16.90;99.90
28767;DHT22;15921;52.034;20.650;2022-09-09T08:26:22;17.00;99.90
28767;DHT22;15921;52.034;20.650;2022-09-09T08:28:50;17.00;99.90
28767;DHT22;15921;52.034;20.650;2022-09-09T08:31:33;17.10;99.90
28767;DHT22;15921;52.034;20.650;2022-09-09T08:34:00;17.10;99.90
28767;DHT22;15921;52.034;20.650;2022-09-09T08:36:28;17.30;99.90
28767;DHT22;15921;52.034;20.650;2022-09-09T08:38:56;17.40;99.90
28767;DHT22;15921;52.034;20.650;2022-09-09T08:50:35;17.60;99.90
28767;DHT22;15921;52.034;20.650;2022-09-09T08:58:28;17.70;99.90
28767;DHT22;15921;52.034;20.650;2022-09-09T09:11:57;17.80;99.90
28767;DHT22;15921;52.034;20.650;2022-09-09T09:14:33;18.00;99.90
28767;DHT22;15921;52.034;20.650;2022-09-09T09:17:06;18.30;99.90
28767;DHT22;15921;52.034;20.650;2022-09-09T09:19:38;18.50;99.90
28767;DHT22;15921;52.034;20.650;2022-09-09T09:22:50;18.60;99.90
28767;DHT22;15921;52.034;20.650;2022-09-09T09:30:20;18.80;99.90
28767;DHT22;15921;52.034;20.650;2022-09-09T09:33:35;18.80;99.90
28767;DHT22;15921;52.034;20.650;2022-09-09T09:35:41;18.80;99.90
28767;DHT22;15921;52.034;20.650;2022-09-09T09:38:27;18.90;99.90
28767;DHT22;15921;52.034;20.650;2022-09-09T09:40:58;18.80;99.90
28767;DHT22;15921;52.034;20.650;2022-09-09T09:43:42;18.80;99.90
28767;DHT22;15921;52.034;20.650;2022-09-09T09:46:20;18.80;99.90
28767;DHT22;15921;52.034;20.650;2022-09-09T09:49:05;18.80;99.90
28767;DHT22;15921;52.034;20.650;2022-09-09T09:51:32;18.80;99.90
28767;DHT22;15921;52.034;20.650;2022-09-09T09:56:39;18.90;99.90
28767;DHT22;15921;52.034;20.650;2022-09-09T09:59:11;18.80;99.90
28767;DHT22;15921;52.034;20.650;2022-09-09T10:01:44;18.90;99.90
28767;DHT22;15921;52.034;20.650;2022-09-09T10:04:22;18.80;99.90
28767;DHT22;15921;52.034;20.650;2022-09-09T10:06:49;18.80;99.90
28767;DHT22;15921;52.034;20.650;2022-09-09T10:18:04;18.70;99.90
28767;DHT22;15921;52.034;20.650;2022-09-09T10:29:10;18.70;99.90
28767;DHT22;15921;52.034;20.650;2022-09-09T10:36:57;18.60;99.90
28767;DHT22;15921;52.034;20.650;2022-09-09T10:39:37;18.50;99.90
28767;DHT22;15921;52.034;20.650;2022-09-09T10:42:16;18.50;99.90
28767;DHT22;15921;52.034;20.650;2022-09-09T10:47:56;18.60;99.90
28767;DHT22;15921;52.034;20.650;2022-09-09T10:56:18;18.60;99.90
28767;DHT22;15921;52.034;20.650;2022-09-09T10:59:10;18.70;99.90
28767;DHT22;15921;52.034;20.650;2022-09-09T11:06:43;18.90;99.90
28767;DHT22;15921;52.034;20.650;2022-09-09T11:09:16;19.10;99.90
28767;DHT22;15921;52.034;20.650;2022-09-09T11:11:52;19.00;99.90
28767;DHT22;15921;52.034;20.650;2022-09-09T11:14:27;19.00;99.90
28767;DHT22;15921;52.034;20.650;2022-09-09T11:17:22;18.80;99.90
28767;DHT22;15921;52.034;20.650;2022-09-09T11:19:49;18.80;99.90
28767;DHT22;15921;52.034;20.650;2022-09-09T11:27:35;18.90;99.90
28767;DHT22;15921;52.034;20.650;2022-09-09T11:30:14;18.90;99.90
28767;DHT22;15921;52.034;20.650;2022-09-09T11:40:20;19.00;99.90
28767;DHT22;15921;52.034;20.650;2022-09-09T11:42:49;19.00;99.90
28767;DHT22;15921;52.034;20.650;2022-09-09T11:45:28;18.90;99.90
28767;DHT22;15921;52.034;20.650;2022-09-09T11:47:59;18.90;99.90
28767;DHT22;15921;52.034;20.650;2022-09-09T11:50:27;18.90;99.90
28767;DHT22;15921;52.034;20.650;2022-09-09T11:53:25;18.80;99.90
28767;DHT22;15921;52.034;20.650;2022-09-09T11:58:37;18.80;99.90
28767;DHT22;15921;52.034;20.650;2022-09-09T12:06:33;19.30;99.90
28767;DHT22;15921;52.034;20.650;2022-09-09T12:11:46;20.30;99.90
28767;DHT22;15921;52.034;20.650;2022-09-09T12:17:27;20.70;99.90
28767;DHT22;15921;52.034;20.650;2022-09-09T12:20:15;21.00;99.90
28767;DHT22;15921;52.034;20.650;2022-09-09T12:31:04;21.10;99.90
28767;DHT22;15921;52.034;20.650;2022-09-09T12:33:37;20.70;99.90
28767;DHT22;15921;52.034;20.650;2022-09-09T12:36:18;20.40;99.90
28767;DHT22;15921;52.034;20.650;2022-09-09T12:38:45;20.50;99.90
28767;DHT22;15921;52.034;20.650;2022-09-09T12:41:26;20.70;99.90
28767;DHT22;15921;52.034;20.650;2022-09-09T12:44:06;20.80;99.90
28767;DHT22;15921;52.034;20.650;2022-09-09T12:46:40;20.90;99.90
28767;DHT22;15921;52.034;20.650;2022-09-09T12:52:02;20.90;99.90
28767;DHT22;15921;52.034;20.650;2022-09-09T12:54:32;20.80;99.90
28767;DHT22;15921;52.034;20.650;2022-09-09T12:56:59;21.00;99.90
28767;DHT22;15921;52.034;20.650;2022-09-09T12:59:37;21.30;99.90
28767;DHT22;15921;52.034;20.650;2022-09-09T13:02:32;21.50;99.90
28767;DHT22;15921;52.034;20.650;2022-09-09T13:05:12;21.70;99.90
28767;DHT22;15921;52.034;20.650;2022-09-09T13:07:39;21.60;99.90
28767;DHT22;15921;52.034;20.650;2022-09-09T13:10:07;21.60;99.90
28767;DHT22;15921;52.034;20.650;2022-09-09T13:12:33;21.50;99.90
28767;DHT22;15921;52.034;20.650;2022-09-09T13:14:59;21.40;99.90
28767;DHT22;15921;52.034;20.650;2022-09-09T13:17:26;21.20;99.90
28767;DHT22;15921;52.034;20.650;2022-09-09T13:19:54;21.20;99.90
28767;DHT22;15921;52.034;20.650;2022-09-09T13:22:29;21.10;99.90
28767;DHT22;15921;52.034;20.650;2022-09-09T13:25:00;21.00;99.90
28767;DHT22;15921;52.034;20.650;2022-09-09T13:27:36;20.90;99.90
28767;DHT22;15921;52.034;20.650;2022-09-09T13:30:34;20.90;99.90
28767;DHT22;15921;52.034;20.650;2022-09-09T13:35:44;20.70;99.90
28767;DHT22;15921;52.034;20.650;2022-09-09T13:38:14;20.60;99.90
28767;DHT22;15921;52.034;20.650;2022-09-09T13:40:40;20.60;99.90
28767;DHT22;15921;52.034;20.650;2022-09-09T13:43:14;20.70;99.90
28767;DHT22;15921;52.034;20.650;2022-09-09T13:45:53;20.70;99.90
28767;DHT22;15921;52.034;20.650;2022-09-09T13:48:19;20.60;99.90
28767;DHT22;15921;52.034;20.650;2022-09-09T13:51:03;20.60;99.90
28767;DHT22;15921;52.034;20.650;2022-09-09T13:53:31;20.60;99.90
28767;DHT22;15921;52.034;20.650;2022-09-09T13:55:57;20.60;99.90
28767;DHT22;15921;52.034;20.650;2022-09-09T13:58:24;20.70;99.90
28767;DHT22;15921;52.034;20.650;2022-09-09T14:00:52;20.80;99.90
28767;DHT22;15921;52.034;20.650;2022-09-09T14:03:18;21.00;99.90
28767;DHT22;15921;52.034;20.650;2022-09-09T14:05:44;21.10;99.90
28767;DHT22;15921;52.034;20.650;2022-09-09T14:08:16;21.30;99.90
28767;DHT22;15921;52.034;20.650;2022-09-09T14:10:43;21.80;99.90
28767;DHT22;15921;52.034;20.650;2022-09-09T14:13:08;22.50;99.90
28767;DHT22;15921;52.034;20.650;2022-09-09T14:15:34;23.90;99.90
28767;DHT22;15921;52.034;20.650;2022-09-09T14:18:00;26.60;99.90
28767;DHT22;15921;52.034;20.650;2022-09-09T14:20:25;28.90;93.40
28767;DHT22;15921;52.034;20.650;2022-09-09T14:22:51;29.90;84.90
28767;DHT22;15921;52.034;20.650;2022-09-09T14:25:19;31.30;77.00
28767;DHT22;15921;52.034;20.650;2022-09-09T14:27:44;30.00;76.20
28767;DHT22;15921;52.034;20.650;2022-09-09T14:30:11;28.50;79.30
28767;DHT22;15921;52.034;20.650;2022-09-09T14:32:37;27.50;82.60
28767;DHT22;15921;52.034;20.650;2022-09-09T14:35:12;27.00;85.70
28767;DHT22;15921;52.034;20.650;2022-09-09T14:37:38;26.90;87.10
28767;DHT22;15921;52.034;20.650;2022-09-09T14:40:05;27.60;86.20
28767;DHT22;15921;52.034;20.650;2022-09-09T14:42:31;27.40;84.60
28767;DHT22;15921;52.034;20.650;2022-09-09T14:44:56;27.40;86.00
28767;DHT22;15921;52.034;20.650;2022-09-09T14:47:22;27.90;82.10
28767;DHT22;15921;52.034;20.650;2022-09-09T14:49:48;27.10;83.40
28767;DHT22;15921;52.034;20.650;2022-09-09T14:52:15;26.30;86.80
28767;DHT22;15921;52.034;20.650;2022-09-09T14:54:41;25.60;91.00
28767;DHT22;15921;52.034;20.650;2022-09-09T14:57:07;24.90;93.50
28767;DHT22;15921;52.034;20.650;2022-09-09T14:59:33;24.50;95.90
28767;DHT22;15921;52.034;20.650;2022-09-09T15:01:59;24.70;97.10
28767;DHT22;15921;52.034;20.650;2022-09-09T15:04:29;27.10;92.20
28767;DHT22;15921;52.034;20.650;2022-09-09T15:06:55;29.40;80.50
28767;DHT22;15921;52.034;20.650;2022-09-09T15:09:21;31.00;72.50
28767;DHT22;15921;52.034;20.650;2022-09-09T15:11:46;30.80;69.40
28767;DHT22;15921;52.034;20.650;2022-09-09T15:14:12;29.80;70.90
28767;DHT22;15921;52.034;20.650;2022-09-09T15:16:39;29.00;72.90
28767;DHT22;15921;52.034;20.650;2022-09-09T15:19:05;28.50;74.80
28767;DHT22;15921;52.034;20.650;2022-09-09T15:21:33;28.20;75.90
28767;DHT22;15921;52.034;20.650;2022-09-09T15:24:00;28.00;76.80
28767;DHT22;15921;52.034;20.650;2022-09-09T15:26:27;27.90;77.60
28767;DHT22;15921;52.034;20.650;2022-09-09T15:28:53;29.10;75.10
28767;DHT22;15921;52.034;20.650;2022-09-09T15:31:24;30.40;72.10
28767;DHT22;15921;52.034;20.650;2022-09-09T15:34:00;31.70;68.00
28767;DHT22;15921;52.034;20.650;2022-09-09T15:36:32;32.30;65.70
28767;DHT22;15921;52.034;20.650;2022-09-09T15:38:59;32.20;63.60
28767;DHT22;15921;52.034;20.650;2022-09-09T15:41:25;32.00;63.50
28767;DHT22;15921;52.034;20.650;2022-09-09T15:43:53;31.60;63.60
28767;DHT22;15921;52.034;20.650;2022-09-09T15:48:57;29.20;68.30
28767;DHT22;15921;52.034;20.650;2022-09-09T15:51:24;27.40;72.40
28767;DHT22;15921;52.034;20.650;2022-09-09T15:53:55;26.10;77.40
28767;DHT22;15921;52.034;20.650;2022-09-09T15:56:22;25.60;83.30
28767;DHT22;15921;52.034;20.650;2022-09-09T15:58:48;25.70;83.90
28767;DHT22;15921;52.034;20.650;2022-09-09T16:01:13;26.40;82.40
28767;DHT22;15921;52.034;20.650;2022-09-09T16:03:41;27.10;79.60
28767;DHT22;15921;52.034;20.650;2022-09-09T16:06:08;27.40;77.60
28767;DHT22;15921;52.034;20.650;2022-09-09T16:08:36;27.20;76.60
28767;DHT22;15921;52.034;20.650;2022-09-09T16:11:10;25.90;80.10
28767;DHT22;15921;52.034;20.650;2022-09-09T16:13:37;24.80;87.20
28767;DHT22;15921;52.034;20.650;2022-09-09T16:16:05;23.80;93.20
28767;DHT22;15921;52.034;20.650;2022-09-09T16:18:38;22.90;97.80
28767;DHT22;15921;52.034;20.650;2022-09-09T16:21:05;22.20;99.90
28767;DHT22;15921;52.034;20.650;2022-09-09T16:23:34;21.60;99.90
28767;DHT22;15921;52.034;20.650;2022-09-09T16:26:01;21.10;99.90
28767;DHT22;15921;52.034;20.650;2022-09-09T16:28:28;20.70;99.90
28767;DHT22;15921;52.034;20.650;2022-09-09T16:30:53;20.40;99.90
28767;DHT22;15921;52.034;20.650;2022-09-09T16:33:19;20.10;99.90
28767;DHT22;15921;52.034;20.650;2022-09-09T16:35:45;19.80;99.90
28767;DHT22;15921;52.034;20.650;2022-09-09T16:38:11;19.60;99.90
28767;DHT22;15921;52.034;20.650;2022-09-09T16:40:38;19.50;99.90
28767;DHT22;15921;52.034;20.650;2022-09-09T16:43:07;19.40;99.90
28767;DHT22;15921;52.034;20.650;2022-09-09T16:45:35;19.30;99.90
28767;DHT22;15921;52.034;20.650;2022-09-09T16:48:06;19.10;99.90
28767;DHT22;15921;52.034;20.650;2022-09-09T16:50:32;18.80;99.90
28767;DHT22;15921;52.034;20.650;2022-09-09T16:52:57;18.70;99.90
28767;DHT22;15921;52.034;20.650;2022-09-09T16:55:23;18.60;99.90
28767;DHT22;15921;52.034;20.650;2022-09-09T16:57:49;18.50;99.90
28767;DHT22;15921;52.034;20.650;2022-09-09T17:00:15;18.40;99.90
28767;DHT22;15921;52.034;20.650;2022-09-09T17:02:42;18.30;99.90
28767;DHT22;15921;52.034;20.650;2022-09-09T17:05:09;18.10;99.90
28767;DHT22;15921;52.034;20.650;2022-09-09T17:07:35;18.00;99.90
28767;DHT22;15921;52.034;20.650;2022-09-09T17:10:01;18.00;99.90
28767;DHT22;15921;52.034;20.650;2022-09-09T17:12:27;17.90;99.90
28767;DHT22;15921;52.034;20.650;2022-09-09T17:14:53;17.90;99.90
28767;DHT22;15921;52.034;20.650;2022-09-09T17:17:20;17.80;99.90
28767;DHT22;15921;52.034;20.650;2022-09-09T17:19:47;17.70;99.90
28767;DHT22;15921;52.034;20.650;2022-09-09T17:22:12;17.70;99.90
28767;DHT22;15921;52.034;20.650;2022-09-09T17:24:38;17.60;99.90
28767;DHT22;15921;52.034;20.650;2022-09-09T17:27:06;17.60;99.90
28767;DHT22;15921;52.034;20.650;2022-09-09T17:29:31;17.60;99.90
28767;DHT22;15921;52.034;20.650;2022-09-09T17:31:57;17.60;99.90
28767;DHT22;15921;52.034;20.650;2022-09-09T17:34:23;17.50;99.90
28767;DHT22;15921;52.034;20.650;2022-09-09T17:36:50;17.50;99.90
28767;DHT22;15921;52.034;20.650;2022-09-09T17:39:16;17.40;99.90
28767;DHT22;15921;52.034;20.650;2022-09-09T17:41:41;17.40;99.90
28767;DHT22;15921;52.034;20.650;2022-09-09T17:44:08;17.40;99.90
28767;DHT22;15921;52.034;20.650;2022-09-09T17:46:39;17.40;99.90
28767;DHT22;15921;52.034;20.650;2022-09-09T17:49:08;17.30;99.90
28767;DHT22;15921;52.034;20.650;2022-09-09T17:51:35;17.20;99.90
28767;DHT22;15921;52.034;20.650;2022-09-09T17:54:07;17.20;99.90
28767;DHT22;15921;52.034;20.650;2022-09-09T17:56:37;17.20;99.90
28767;DHT22;15921;52.034;20.650;2022-09-09T17:59:05;17.10;99.90
28767;DHT22;15921;52.034;20.650;2022-09-09T18:01:33;17.10;99.90
28767;DHT22;15921;52.034;20.650;2022-09-09T18:04:03;17.10;99.90
28767;DHT22;15921;52.034;20.650;2022-09-09T18:06:33;17.00;99.90
28767;DHT22;15921;52.034;20.650;2022-09-09T18:09:03;16.90;99.90
28767;DHT22;15921;52.034;20.650;2022-09-09T18:11:31;17.00;99.90
28767;DHT22;15921;52.034;20.650;2022-09-09T18:14:00;17.00;99.90
28767;DHT22;15921;52.034;20.650;2022-09-09T18:16:28;17.00;99.90
28767;DHT22;15921;52.034;20.650;2022-09-09T18:18:56;17.00;99.90
28767;DHT22;15921;52.034;20.650;2022-09-09T18:21:23;16.90;99.90
28767;DHT22;15921;52.034;20.650;2022-09-09T18:23:51;17.00;99.90
28767;DHT22;15921;52.034;20.650;2022-09-09T18:26:20;16.90;99.90
28767;DHT22;15921;52.034;20.650;2022-09-09T18:28:52;17.00;99.90
28767;DHT22;15921;52.034;20.650;2022-09-09T18:31:21;17.00;99.90
28767;DHT22;15921;52.034;20.650;2022-09-09T18:34:01;17.00;99.90
28767;DHT22;15921;52.034;20.650;2022-09-09T18:36:30;17.00;99.90
28767;DHT22;15921;52.034;20.650;2022-09-09T18:38:57;16.90;99.90
28767;DHT22;15921;52.034;20.650;2022-09-09T18:41:24;16.80;99.90
28767;DHT22;15921;52.034;20.650;2022-09-09T18:43:53;16.80;99.90
28767;DHT22;15921;52.034;20.650;2022-09-09T18:46:21;16.80;99.90
28767;DHT22;15921;52.034;20.650;2022-09-09T18:48:48;16.70;99.90
28767;DHT22;15921;52.034;20.650;2022-09-09T18:51:17;16.60;99.90
28767;DHT22;15921;52.034;20.650;2022-09-09T18:56:17;16.60;99.90
28767;DHT22;15921;52.034;20.650;2022-09-09T18:58:43;16.60;99.90
28767;DHT22;15921;52.034;20.650;2022-09-09T19:01:12;16.50;99.90
28767;DHT22;15921;52.034;20.650;2022-09-09T19:03:38;16.60;99.90
28767;DHT22;15921;52.034;20.650;2022-09-09T19:06:10;16.60;99.90
28767;DHT22;15921;52.034;20.650;2022-09-09T19:08:43;16.60;99.90
28767;DHT22;15921;52.034;20.650;2022-09-09T19:11:14;16.60;99.90